Date,TemperatureHighF,TemperatureAvgF,TemperatureLowF,DewpointHighF,DewpointAvgF,DewpointLowF,HumidityHigh,HumidityAvg,HumidityLow,PressureMaxIn,PressureMinIn,WindSpeedMaxMPH,WindSpeedAvgMPH,GustSpeedMaxMPH,PrecipitationSumIn
2014-1-1,9.9,7.2,2.8,5.0,2.2,-3.0,83,79,77,30.48,30.18,7,1,11,0.00
2014-1-2,10.6,3.5,-1.0,0.0,-2.8,-5.0,84,76,60,30.55,30.44,4,0,9,0.00
2014-1-3,37.5,21.5,1.8,29.0,14.0,-4.0,79,73,65,30.45,29.61,16,4,20,0.05
2014-1-4,37.5,21.5,8.2,31.0,14.9,2.0,85,76,69,30.26,29.65,10,2,17,0.00
2014-1-5,9.1,2.0,-9.3,1.0,-7.8,-19.0,75,64,50,30.62,30.27,14,4,21,0.00
2014-1-6,5.3,-4.1,-11.1,-7.0,-12.6,-19.0,80,67,54,30.61,30.38,7,1,13,0.00
2014-1-7,24.8,6.3,-1.8,11.0,-1.1,-8.0,79,72,56,30.39,30.12,2,0,7,0.00
2014-2-18,53.3,45.0,37.6,32.0,29.0,27.0,66,54,45,29.91,29.77,8,2,13,0.00
2014-2-19,51.3,39.0,24.1,34.0,27.3,21.0,89,66,35,29.92,29.56,8,1,14,0.00
2014-2-20,42.3,34.7,25.0,35.0,28.7,17.0,95,79,66,29.75,29.46,11,4,24,0.41
2014-2-21,48.3,31.9,21.0,34.0,23.2,15.0,91,72,46,29.88,29.75,5,1,11,0.03
2014-2-22,40.3,32.2,27.5,28.0,21.9,15.0,92,67,45,30.21,29.88,5,0,9,0.00
2014-2-23,31.4,24.9,19.7,15.0,10.7,6.0,69,56,43,30.40,30.21,6,1,10,0.00
2014-2-24,24.7,23.0,20.1,19.0,16.2,12.0,89,75,61,30.39,30.23,3,0,8,0.00
2014-2-25,20.1,12.3,6.2,17.0,5.0,-2.0,89,73,61,30.55,30.34,10,2,15,0.00
2014-2-26,36.1,17.7,0.6,18.0,7.2,-3.0,84,65,47,30.55,29.95,9,2,17,0.00
2014-2-27,13.3,9.1,3.7,2.0,-1.5,-9.0,73,62,55,30.22,29.93,7,1,10,0.00
2014-2-28,39.6,22.6,12.4,23.0,11.5,1.0,88,64,42,30.18,29.82,11,2,14,0.00
2014-3-1,18.3,6.9,-0.2,13.0,0.4,-7.0,80,75,69,30.59,30.18,10,2,12,0.00
2014-3-2,3.6,-0.9,-5.0,-6.0,-10.2,-13.0,79,65,50,30.71,30.57,7,1,14,0.00
2014-3-3,17.3,7.3,-5.8,6.0,-3.4,-12.0,78,63,45,30.68,30.23,14,2,17,0.00
2014-3-4,35.3,23.1,10.5,22.0,13.1,4.0,77,67,53,30.23,29.99,6,1,10,0.05
2014-3-5,35.1,25.3,19.4,22.0,18.1,14.0,86,75,58,30.32,30.11,4,1,10,0.00
2014-3-6,38.7,29.7,22.9,32.0,25.9,20.0,93,86,74,30.31,29.82,17,3,19,0.00
2014-3-7,41.4,33.7,25.7,36.0,28.9,19.0,92,82,69,30.20,29.77,9,2,15,0.00
2014-3-8,41.3,28.1,17.8,22.0,18.2,14.0,85,68,43,30.37,30.20,9,1,14,0.01
2014-3-9,73.1,48.6,25.1,36.0,27.1,18.0,74,49,21,30.27,29.78,15,3,22,0.00
2014-3-10,76.6,58.5,41.5,42.0,36.0,30.0,65,45,26,29.77,29.53,5,0,11,0.00
2014-3-11,54.9,44.1,33.0,39.0,35.4,31.0,93,73,56,30.05,29.41,13,2,19,0.04
2014-3-12,53.8,38.6,27.7,37.0,28.4,25.0,91,70,36,30.19,30.03,12,1,19,0.00
2014-3-13,69.5,48.9,27.6,34.0,26.6,22.0,82,48,21,30.04,29.63,10,1,16,0.00
2014-3-14,59.8,49.6,37.7,33.0,25.3,21.0,66,41,23,29.90,29.59,12,3,19,0.00
2014-3-15,63.6,43.0,29.0,36.0,27.1,22.0,90,56,30,30.22,29.79,10,2,18,0.00
2014-3-16,42.7,31.3,22.7,27.0,17.6,12.0,91,60,31,30.39,30.08,6,1,11,0.01
2014-3-17,60.2,40.9,24.8,31.0,23.6,16.0,75,53,31,30.07,29.42,11,4,17,0.00
2014-3-18,56.8,43.7,30.5,35.0,30.5,26.0,93,62,43,29.77,29.38,11,2,19,0.01
2014-3-19,52.4,38.9,30.2,33.0,28.9,26.0,93,70,38,30.09,29.78,13,3,17,0.04
2014-3-20,65.0,46.2,27.1,34.0,28.4,24.0,89,56,25,30.02,29.79,4,0,9,0.00
2014-3-21,57.5,44.1,31.4,36.0,31.0,23.0,83,62,37,30.22,29.72,16,4,29,0.00
2014-3-22,31.7,26.8,20.0,23.0,12.0,5.0,78,56,33,30.54,30.23,6,2,13,0.00
2014-3-23,39.9,28.0,12.9,14.0,10.7,7.0,78,51,32,30.57,30.29,8,1,10,0.00
2014-3-24,46.4,33.7,24.6,21.0,16.1,12.0,69,49,34,30.31,30.18,11,2,19,0.00
2014-3-25,40.0,29.4,21.2,22.0,10.9,4.0,84,50,23,30.41,30.16,12,2,19,0.00
2014-3-26,64.5,42.2,27.4,40.0,25.3,6.0,87,53,35,30.15,29.56,21,6,29,0.00
2014-3-27,51.1,40.2,32.5,50.0,38.2,30.0,97,92,85,29.82,29.25,14,4,23,0.14
2014-3-28,41.3,33.1,25.3,32.0,27.9,22.0,89,81,67,30.25,29.83,6,1,9,0.00
2014-3-29,56.8,40.1,23.0,33.0,28.7,21.0,94,68,39,30.32,30.04,12,1,15,0.00
2014-3-30,76.3,59.0,43.7,41.0,36.2,32.0,64,45,27,30.04,29.57,13,3,20,0.00
2014-3-31,73.0,52.0,27.2,46.0,33.4,15.0,65,51,33,29.89,29.32,17,5,26,0.00
2014-4-1,43.9,33.0,22.3,24.0,19.4,15.0,75,59,44,30.12,29.89,12,2,26,0.00
2014-4-2,44.5,38.8,32.7,39.0,30.5,21.0,92,73,55,30.08,29.77,8,1,10,0.00
2014-4-3,41.5,38.1,32.8,39.0,37.0,32.0,96,95,89,29.78,29.66,8,2,13,0.14
2014-4-4,43.2,35.8,29.2,34.0,30.5,26.0,96,82,62,30.14,29.79,14,4,26,0.14
2014-4-5,60.5,43.8,26.7,36.0,29.9,25.0,92,64,31,30.15,29.93,12,3,17,0.00
2014-4-6,63.6,54.1,47.1,42.0,38.0,34.0,67,55,45,29.93,29.78,10,2,17,0.00
2014-4-7,64.6,53.4,44.1,46.0,38.6,33.0,84,60,31,29.89,29.72,13,1,21,0.00
2014-4-8,59.4,47.3,37.6,37.0,30.9,22.0,83,57,25,30.06,29.89,11,2,17,0.00
2014-4-9,81.8,58.3,34.2,42.0,31.7,23.0,69,40,21,30.02,29.55,9,1,17,0.00
2014-4-10,68.9,59.3,48.5,40.0,32.2,22.0,62,38,19,29.94,29.51,10,1,15,0.00
2014-4-11,77.8,60.1,40.0,39.0,32.0,26.0,60,37,21,30.01,29.75,8,1,11,0.00
2014-4-12,82.1,69.7,56.2,61.0,53.5,37.0,81,58,40,29.74,29.41,6,1,14,0.00
2014-4-13,64.4,43.8,30.3,55.0,40.8,28.0,95,89,72,29.92,29.48,13,4,26,1.07
2014-4-14,41.7,33.0,26.9,27.0,22.2,18.0,84,66,47,30.21,29.92,8,3,18,0.09
2014-4-15,53.3,39.1,23.5,32.0,25.0,18.0,82,59,41,30.20,29.82,12,2,17,0.00
2014-4-16,68.1,48.6,34.6,41.0,32.3,28.0,78,56,31,30.08,29.63,20,5,26,0.00
2014-4-17,56.0,41.4,30.7,34.0,28.3,25.0,80,62,34,30.32,30.09,10,1,18,0.00
2014-4-18,68.8,52.0,34.8,44.0,36.9,28.0,83,59,40,30.26,30.03,10,2,20,0.00
2014-4-19,77.6,66.3,53.2,53.0,47.4,43.0,69,52,38,30.04,29.88,11,3,17,0.00
2014-4-20,83.4,68.4,58.1,59.0,54.1,47.0,87,62,40,29.91,29.81,9,1,13,0.01
2014-4-21,75.4,65.3,55.5,58.0,44.3,27.0,94,54,17,30.07,29.84,11,2,20,0.02
2014-4-22,69.6,57.4,41.0,42.0,36.3,33.0,74,47,32,30.11,29.89,7,1,11,0.00
2014-4-23,59.5,53.8,48.1,48.0,42.7,37.0,85,67,44,29.91,29.55,14,4,25,0.04
2014-4-24,65.3,54.2,47.8,51.0,46.4,42.0,97,77,45,29.76,29.55,9,1,19,0.18
2014-4-25,80.7,61.2,40.1,47.0,42.5,36.0,89,56,23,29.80,29.67,7,1,16,0.00
2014-4-26,82.0,67.1,52.1,60.0,50.6,44.0,77,57,39,29.70,29.42,14,3,21,0.00
2014-4-27,69.3,63.6,59.2,60.0,57.1,53.0,98,80,61,29.41,29.17,11,4,22,0.42
2014-4-28,64.0,57.8,51.9,59.0,50.5,44.0,93,77,60,29.31,29.15,9,1,16,0.00
2014-4-29,52.1,43.7,37.7,48.0,40.8,35.0,95,89,79,29.85,29.31,11,2,15,0.10
2014-4-30,45.1,42.6,37.8,40.0,37.7,35.0,91,83,69,29.93,29.85,13,3,21,0.00
2014-5-1,49.8,44.8,41.2,40.0,38.8,37.0,93,80,66,29.96,29.87,11,2,18,0.01
2014-5-2,72.8,53.3,34.7,46.0,38.6,33.0,93,62,31,29.95,29.71,13,1,16,0.00
2014-5-3,74.9,60.3,43.7,48.0,42.8,38.0,82,55,33,29.89,29.79,4,0,5,0.00
2014-5-4,69.7,58.7,49.5,49.0,43.9,39.0,74,59,46,29.92,29.73,8,1,16,0.00
2014-5-5,75.5,60.9,47.6,50.0,44.8,41.0,77,57,38,29.79,29.70,5,0,11,0.00
2014-5-6,81.1,67.2,52.6,62.0,52.6,42.0,71,60,47,29.72,29.43,6,1,16,0.00
2014-5-7,96.8,77.4,62.6,67.0,59.7,39.0,94,62,14,29.51,29.36,7,1,20,1.46
2014-5-8,83.0,66.9,50.7,67.0,58.2,43.0,95,76,32,29.73,29.46,11,2,18,0.00
2014-5-9,71.4,56.4,43.4,47.0,42.0,39.0,85,61,34,29.83,29.72,9,1,16,0.00
2014-5-10,84.6,68.4,55.7,59.0,48.7,41.0,80,53,22,29.77,29.59,11,1,15,0.00
2014-5-11,76.3,63.6,55.9,69.0,57.0,41.0,97,81,43,29.73,29.31,13,1,26,0.49
2014-5-12,58.1,50.9,46.2,57.0,49.2,43.0,97,94,86,30.00,29.58,10,2,16,0.07
2014-5-13,61.2,51.4,43.0,43.0,38.6,35.0,89,64,41,30.25,30.01,10,2,14,0.02
2014-5-14,69.5,53.1,38.2,44.0,38.6,34.0,95,62,29,30.25,30.06,8,0,15,0.02
2014-5-15,53.4,46.3,36.6,38.0,31.0,29.0,80,57,41,30.16,30.11,8,1,18,0.01
2014-5-16,55.4,45.8,31.9,39.0,33.1,29.0,92,64,42,30.14,30.04,4,0,7,0.01
2014-5-17,68.2,53.6,37.4,42.0,36.9,32.0,95,59,28,30.13,30.04,6,0,11,0.00
2014-5-18,73.4,59.7,41.9,49.0,43.3,38.0,86,57,36,30.10,29.83,9,2,16,0.00
2014-5-19,83.1,70.6,61.1,67.0,59.8,48.0,85,69,55,29.84,29.53,9,2,21,0.01
2014-5-20,85.6,73.7,63.4,69.0,64.2,60.0,88,73,56,29.76,29.61,3,0,9,0.00
2014-5-21,83.2,71.9,63.1,59.0,52.2,47.0,71,51,34,30.00,29.76,4,0,9,0.01
2014-5-22,76.4,64.3,54.2,60.0,54.3,47.0,94,71,49,30.15,29.98,7,0,12,0.00
2014-5-23,81.4,67.7,55.0,58.0,54.4,51.0,96,66,39,30.14,30.00,4,0,10,0.00
2014-5-24,82.0,69.6,62.4,63.0,57.4,53.0,88,66,43,30.03,29.90,3,0,10,0.00
2014-5-25,83.3,70.4,64.6,71.0,66.4,63.0,98,88,64,29.93,29.78,4,0,12,0.00
2014-5-26,86.5,73.5,63.9,72.0,66.4,63.0,99,81,53,29.91,29.77,9,0,11,0.00
2014-5-27,89.2,75.3,64.9,68.0,64.5,59.0,91,71,44,29.87,29.79,4,0,8,0.00
2014-5-28,87.4,75.2,62.4,73.0,65.1,60.0,96,73,45,29.91,29.84,3,0,4,0.00
2014-5-29,87.0,75.1,63.1,71.0,65.6,61.0,93,74,54,29.94,29.84,1,0,10,0.00
2014-5-30,88.5,78.4,68.7,72.0,67.5,65.0,90,71,51,29.96,29.86,6,0,10,0.00
2014-5-31,86.8,77.9,68.8,70.0,67.2,65.0,91,71,53,29.95,29.79,5,1,13,0.00
2014-6-1,87.4,73.6,62.6,72.0,66.5,61.0,97,80,56,29.82,29.61,7,1,17,0.00
2014-6-2,84.1,71.2,60.4,66.0,61.7,59.0,98,75,43,29.88,29.68,5,0,11,0.00
2014-6-3,87.2,69.1,60.0,73.0,62.4,56.0,98,81,55,29.96,29.53,6,1,18,2.29
2014-6-4,80.4,69.2,60.9,68.0,64.2,60.0,99,85,63,29.79,29.61,4,0,9,0.08
2014-6-5,83.9,69.1,64.1,70.0,65.0,62.0,96,88,57,29.85,29.72,4,0,11,0.00
2014-6-6,88.0,74.8,63.7,72.0,66.5,63.0,99,78,50,29.88,29.75,4,0,8,0.00
2014-6-7,73.4,67.2,60.2,66.0,61.7,55.0,93,83,68,29.98,29.79,7,1,11,0.00
2014-6-8,71.4,62.8,54.6,63.0,57.8,52.0,91,84,70,30.02,29.88,3,0,8,0.00
2014-6-9,71.0,66.0,61.8,65.0,61.4,59.0,93,85,76,29.87,29.78,4,0,8,0.00
2014-6-10,80.2,68.9,58.1,65.0,59.2,54.0,89,72,52,29.82,29.74,1,0,7,0.00
2014-6-11,84.7,70.9,55.4,63.0,58.8,54.0,97,68,42,29.79,29.66,5,0,11,0.00
2014-6-12,74.7,67.0,56.9,62.0,51.1,44.0,79,58,38,30.00,29.75,12,2,14,0.00
2014-6-13,80.2,65.3,46.3,53.0,47.1,42.0,89,55,33,30.04,29.78,7,1,13,0.00
2014-6-14,83.7,73.4,61.2,72.0,63.5,53.0,77,71,64,29.82,29.44,14,3,21,0.00
2014-6-15,82.7,71.5,61.2,70.0,61.4,59.0,96,73,45,29.84,29.41,11,1,22,0.18
2014-6-16,88.0,75.2,64.7,78.0,69.7,60.0,98,84,67,29.84,29.51,14,2,22,0.06
2014-6-17,91.8,80.0,66.9,78.0,71.2,61.0,84,75,62,29.70,29.55,10,2,18,0.00
2014-6-18,93.4,83.9,75.5,79.0,74.9,72.0,89,75,60,29.68,29.59,9,2,18,0.00
2014-6-19,86.9,79.1,70.3,75.0,69.1,63.0,88,72,51,29.89,29.63,7,0,13,0.00
2014-6-20,94.1,76.4,62.0,75.0,66.8,61.0,97,75,42,29.92,29.73,6,0,23,3.14
2014-6-21,89.3,74.6,63.1,76.0,68.2,63.0,98,82,59,30.02,29.73,12,0,14,0.66
2014-6-22,80.9,74.5,67.6,71.0,68.4,65.0,93,82,66,29.78,29.67,7,0,11,0.00
2014-6-23,79.5,72.0,65.2,68.0,63.9,60.0,97,77,53,29.89,29.76,4,0,8,0.00
2014-6-24,85.7,71.7,61.0,67.0,61.9,58.0,95,73,46,29.94,29.88,1,0,5,0.00
2014-6-25,88.6,74.3,61.1,71.0,65.5,59.0,96,76,53,29.95,29.84,7,0,13,0.00
2014-6-26,85.3,72.5,66.2,77.0,68.8,65.0,99,88,65,29.87,29.68,5,0,18,1.44
2014-6-27,80.4,71.9,65.1,75.0,69.4,64.0,99,92,78,29.78,29.56,12,1,18,0.50
2014-6-28,82.7,73.0,64.6,71.0,67.6,63.0,98,84,65,29.76,29.57,5,1,12,0.36
2014-6-29,89.1,74.7,64.9,78.0,70.9,64.0,99,89,65,29.82,29.64,4,0,11,0.04
2014-6-30,79.6,73.7,66.1,77.0,70.8,62.0,97,90,74,29.68,29.52,5,0,7,0.00
2014-7-1,78.2,68.9,60.9,62.0,57.7,53.0,89,69,52,29.93,29.71,12,2,20,0.00
2014-7-2,72.4,61.9,56.4,56.0,53.4,52.0,89,75,52,30.11,29.94,7,0,12,0.00
2014-7-3,83.0,67.0,51.5,63.0,56.7,50.0,96,72,48,30.18,30.08,2,0,7,0.00
2014-7-4,84.7,72.9,61.3,68.0,62.4,57.0,87,71,55,30.17,30.01,11,1,17,0.00
2014-7-5,88.4,74.7,65.0,79.0,70.4,62.0,98,87,67,30.02,29.79,8,1,11,0.24
2014-7-6,96.9,81.5,70.2,82.0,74.8,69.0,98,82,58,29.79,29.68,4,0,10,0.00
2014-7-7,88.0,76.0,67.0,73.0,68.9,65.0,97,80,52,29.76,29.65,2,0,8,0.07
2014-7-8,81.1,72.1,63.2,67.0,61.0,57.0,86,70,47,29.92,29.76,7,1,13,0.00
2014-7-9,83.3,71.3,58.7,68.0,62.0,57.0,95,74,47,30.00,29.91,2,0,6,0.00
2014-7-10,86.0,74.8,64.4,72.0,66.6,62.0,91,76,60,29.95,29.86,10,2,16,0.00
2014-7-11,91.7,75.6,69.6,80.0,70.8,66.0,92,85,65,29.93,29.86,7,0,10,0.00
2014-7-12,87.0,77.0,70.5,76.0,72.4,68.0,96,86,65,29.92,29.84,4,0,9,0.00
2014-7-13,87.0,75.7,66.3,78.0,69.4,65.0,97,82,56,29.97,29.86,4,0,12,0.10
2014-7-14,73.3,68.3,58.2,69.0,56.8,49.0,95,69,47,30.08,29.86,9,1,15,0.01
2014-7-15,74.5,62.9,52.1,57.0,52.4,49.0,90,70,50,30.12,29.99,5,0,9,0.00
2014-7-16,80.0,66.5,53.3,60.0,54.7,51.0,95,68,43,30.03,29.95,0,0,4,0.00
2014-7-17,83.9,68.1,56.1,62.0,57.2,54.0,94,71,40,30.02,29.94,2,0,8,0.00
2014-7-18,77.3,69.0,58.8,65.0,61.7,57.0,94,78,65,29.99,29.89,7,1,14,0.00
2014-7-19,82.1,71.8,60.1,70.0,64.1,58.0,93,77,64,29.93,29.82,11,1,15,0.00
2014-7-20,90.4,77.1,65.1,77.0,69.8,62.0,91,78,64,29.82,29.70,8,1,15,0.00
2014-7-21,96.3,83.7,71.9,82.0,75.8,70.0,93,78,59,29.76,29.69,9,1,14,0.00
2014-7-22,90.4,84.7,74.9,79.0,73.9,68.0,82,70,57,30.05,29.75,5,0,13,0.00
2014-7-23,89.2,75.5,64.4,70.0,64.0,60.0,85,69,47,30.16,30.03,5,0,5,0.00
2014-7-24,84.9,73.9,65.6,70.0,64.1,61.0,84,72,57,30.11,29.75,10,1,13,0.00
2014-7-25,97.6,81.2,71.9,81.0,72.7,63.0,90,76,55,29.85,29.61,5,0,16,0.00
2014-7-26,92.4,80.5,72.9,80.0,75.2,71.0,96,84,63,29.82,29.67,0,0,5,0.00
2014-7-27,80.5,74.0,65.3,74.0,63.0,59.0,94,70,51,30.09,29.82,6,1,17,0.00
2014-7-28,79.4,68.1,58.0,62.0,58.0,55.0,91,72,50,30.18,30.09,5,0,10,0.00
2014-7-29,78.3,67.9,57.2,62.0,58.6,55.0,94,74,51,30.13,30.02,1,0,7,0.00
2014-7-30,82.4,69.1,55.8,62.0,57.5,54.0,93,69,41,30.08,30.01,4,0,6,0.00
2014-7-31,88.3,71.2,57.1,67.0,60.4,55.0,95,71,44,30.04,29.91,4,0,7,0.00
2014-8-1,86.7,73.6,62.8,70.0,64.1,60.0,94,73,54,30.02,29.94,2,0,9,0.00
2014-8-2,88.3,75.7,63.1,72.0,66.5,61.0,96,75,55,30.07,29.96,3,0,8,0.00
2014-8-3,90.0,75.9,62.9,76.0,68.1,61.0,96,78,57,30.06,29.90,5,0,15,0.12
2014-8-4,87.0,75.9,67.5,76.0,69.9,65.0,93,82,64,29.97,29.89,2,0,6,0.00
2014-8-5,88.7,78.5,70.1,75.0,70.9,68.0,93,78,55,29.98,29.87,1,0,5,0.00
2014-8-6,75.7,71.3,67.2,73.0,68.8,66.0,99,92,82,29.90,29.81,5,0,10,0.31
2014-8-7,77.3,71.3,68.0,72.0,69.1,67.0,97,92,81,29.88,29.82,2,0,5,0.00
2014-8-8,82.7,72.8,68.3,72.0,68.7,67.0,97,87,67,29.93,29.87,0,0,5,0.00
2014-8-9,82.0,73.2,68.1,74.0,69.5,67.0,98,88,75,29.95,29.86,1,0,8,0.00
2014-8-10,80.1,72.2,68.3,73.0,69.3,67.0,98,91,74,29.98,29.91,1,0,5,0.02
2014-8-11,77.1,70.1,63.6,67.0,61.3,57.0,97,76,52,30.06,29.97,8,1,14,0.00
2014-8-12,79.0,66.9,55.3,61.0,56.4,53.0,92,71,48,30.09,30.00,5,0,9,0.00
2014-8-13,85.7,69.6,55.1,66.0,58.8,54.0,98,72,41,30.09,29.97,2,0,7,0.00
2014-8-14,83.9,72.5,60.7,70.0,63.6,58.0,93,75,60,30.01,29.87,5,0,8,0.00
2014-8-15,73.8,71.2,69.2,69.0,66.4,63.0,94,84,73,29.87,29.76,5,0,9,0.00
2014-8-16,87.5,75.8,69.0,74.0,69.9,67.0,96,83,60,29.83,29.74,1,0,7,0.00
2014-8-17,88.6,76.5,68.0,76.0,70.8,67.0,97,83,64,29.89,29.77,4,0,8,0.00
2014-8-18,91.0,76.8,63.2,73.0,67.5,62.0,98,75,49,29.88,29.66,5,0,11,0.01
2014-8-19,91.4,78.3,66.6,72.0,68.4,64.0,94,74,49,29.74,29.66,3,0,4,0.00
2014-8-20,90.2,79.4,72.8,78.0,73.0,69.0,90,81,66,29.74,29.63,8,0,14,0.00
2014-8-21,91.4,82.1,71.6,78.0,73.4,69.0,92,75,59,29.77,29.65,4,0,11,0.00
2014-8-22,91.7,78.0,70.4,81.0,74.4,68.0,99,89,66,29.84,29.73,1,0,6,2.64
2014-8-23,90.5,78.3,68.3,80.0,73.7,68.0,100,87,66,29.87,29.65,7,1,11,0.74
2014-8-24,89.5,80.6,70.5,75.0,69.3,65.0,83,69,57,29.78,29.67,5,0,10,0.00
2014-8-25,78.1,71.8,67.0,68.0,63.7,57.0,93,76,61,29.98,29.77,9,0,14,0.00
2014-8-26,77.8,69.0,62.0,71.0,66.0,61.0,99,90,75,30.10,29.93,4,0,9,1.79
2014-8-27,72.8,69.2,66.8,71.0,68.3,66.0,99,97,94,30.08,29.95,4,0,10,0.59
2014-8-28,78.9,73.9,69.2,75.0,71.7,69.0,100,91,82,29.96,29.72,10,0,10,0.32
2014-8-29,77.4,71.1,66.9,74.0,69.5,66.0,97,94,83,29.76,29.67,3,0,8,0.28
2014-8-30,86.2,71.4,63.1,70.0,66.0,62.0,99,85,53,29.88,29.73,4,0,6,0.00
2014-8-31,85.0,72.3,66.6,77.0,68.7,65.0,98,89,76,29.75,29.45,6,0,24,0.26
2014-9-1,79.4,69.4,63.5,67.0,64.8,62.0,99,86,60,29.88,29.59,4,0,13,0.00
2014-9-2,81.5,67.6,56.7,65.0,60.3,56.0,98,79,52,29.93,29.82,3,0,12,0.00
2014-9-3,85.6,74.7,66.0,76.0,69.8,60.0,97,85,68,29.84,29.61,10,1,21,0.00
2014-9-4,91.9,80.1,72.1,77.0,72.4,63.0,90,78,58,29.87,29.59,6,0,11,0.00
2014-9-5,71.5,61.7,55.8,61.0,57.2,54.0,96,85,65,30.20,29.88,5,0,10,0.12
2014-9-6,75.1,61.1,49.7,58.0,53.2,49.0,97,78,47,30.26,30.15,1,0,4,0.00
2014-9-7,78.0,63.3,49.8,61.0,55.4,49.0,98,78,52,30.17,29.95,4,0,10,0.00
2014-9-8,84.9,71.6,59.5,73.0,63.9,55.0,86,77,62,29.95,29.68,10,1,14,0.00
2014-9-9,76.3,70.7,67.2,73.0,69.0,66.0,99,94,84,29.72,29.49,3,0,13,1.65
2014-9-10,67.5,60.8,53.7,67.0,58.9,52.0,99,94,85,30.03,29.53,11,1,16,0.00
2014-9-11,54.3,52.3,50.8,51.0,49.3,47.0,93,89,84,30.31,30.04,2,0,6,0.00
2014-9-12,53.8,47.7,42.5,48.0,45.1,42.0,96,90,78,30.43,30.29,2,0,5,0.00
2014-9-13,62.6,50.3,37.2,47.0,42.6,37.0,99,78,52,30.39,30.17,10,1,12,0.00
2014-9-14,72.5,60.2,47.1,56.0,51.8,45.0,96,75,53,30.18,30.00,6,0,7,0.04
2014-9-15,63.4,58.0,48.3,59.0,52.5,47.0,96,83,59,30.21,29.95,6,0,12,0.00
2014-9-16,71.7,56.5,42.1,55.0,48.9,41.0,98,78,53,30.22,29.94,6,0,9,0.00
2014-9-17,82.1,67.8,55.7,68.0,60.5,54.0,95,79,56,29.94,29.81,1,0,6,0.00
2014-9-18,78.5,66.7,59.5,64.0,60.5,58.0,97,82,58,29.95,29.86,5,0,10,0.00
2014-9-19,89.0,72.9,60.8,74.0,66.5,59.0,96,82,55,29.90,29.69,10,1,13,0.00
2014-9-20,85.8,74.5,66.6,72.0,65.7,56.0,98,76,44,29.97,29.70,5,0,11,0.04
2014-9-21,71.5,62.1,53.7,55.0,51.4,48.0,90,69,50,30.20,29.97,8,1,12,0.00
2014-9-22,76.0,61.1,47.4,56.0,51.8,46.0,98,74,48,30.26,30.11,3,0,7,0.00
2014-9-23,69.4,61.8,58.0,59.0,55.8,52.0,97,81,62,30.11,30.01,9,1,16,0.04
2014-9-24,70.0,64.5,59.7,64.0,59.3,55.0,89,83,78,30.08,30.00,4,1,11,0.00
2014-9-25,85.7,69.1,56.4,70.0,61.9,55.0,96,80,54,30.11,30.00,2,0,7,0.00
2014-9-26,86.3,71.2,59.7,69.0,61.6,59.0,97,75,42,30.03,29.95,6,0,12,0.00
2014-9-27,81.9,70.9,61.2,65.0,61.0,58.0,92,72,52,30.03,29.93,4,0,10,0.00
2014-9-28,85.4,70.3,58.2,66.0,60.9,56.0,93,74,49,30.05,29.95,1,0,10,0.00
2014-9-29,86.4,70.7,58.2,66.0,61.1,57.0,95,74,47,30.00,29.84,0,0,5,0.00
2014-9-30,69.4,64.7,62.8,64.0,61.6,58.0,98,90,74,29.87,29.66,7,0,10,0.36
2014-10-1,77.1,66.1,59.9,68.0,63.5,60.0,99,92,70,29.72,29.61,5,0,10,0.03
2014-10-2,64.1,58.5,50.1,64.0,56.3,49.0,99,92,79,29.81,29.67,5,0,10,0.01
2014-10-3,53.0,47.5,39.3,49.0,33.6,26.0,96,60,42,30.12,29.81,14,3,24,0.00
2014-10-4,56.5,44.1,35.8,40.0,30.7,26.0,84,61,36,30.07,29.79,11,1,13,0.00
2014-10-5,67.7,52.5,39.1,53.0,43.7,37.0,94,74,46,29.78,29.65,7,1,13,0.00
2014-10-6,69.2,56.9,48.7,53.0,47.5,44.0,90,72,45,29.71,29.58,7,0,10,0.01
2014-10-7,73.2,61.7,51.9,52.0,47.6,44.0,90,63,37,29.95,29.62,11,1,18,0.00
2014-10-8,70.3,56.3,44.1,52.0,43.9,38.0,88,65,36,30.08,29.95,3,0,5,0.00
2014-10-9,66.8,57.9,49.8,56.0,48.9,37.0,86,73,57,30.13,29.95,3,0,4,0.00
2014-10-10,53.8,47.9,39.8,42.0,38.5,36.0,89,71,57,30.22,30.12,0,0,4,0.00
2014-10-11,64.5,47.7,33.3,42.0,37.3,32.0,97,71,38,30.23,29.96,5,0,10,0.00
2014-10-12,60.6,51.2,42.8,52.0,46.2,37.0,97,83,71,29.95,29.64,7,1,14,0.00
2014-10-13,56.3,53.5,51.7,53.0,50.6,45.0,98,90,71,29.75,29.67,7,1,11,0.00
2014-10-14,66.1,55.1,46.7,47.0,42.7,39.0,82,65,39,29.97,29.73,8,2,16,0.00
2014-10-15,71.5,52.5,37.9,48.0,41.0,35.0,89,68,35,30.03,29.83,4,0,6,0.00
2014-10-16,76.9,58.4,47.7,53.0,44.6,41.0,79,63,33,29.83,29.67,9,0,16,0.00
2014-10-17,62.7,55.8,46.9,46.0,44.3,41.0,80,66,53,30.10,29.78,13,2,21,0.00
2014-10-18,60.2,47.9,41.3,47.0,41.5,37.0,89,79,59,30.25,30.10,1,0,6,0.00
2014-10-19,73.2,55.4,41.3,54.0,46.8,40.0,93,75,49,30.12,29.88,6,0,12,0.00
2014-10-20,72.6,56.8,44.8,50.0,46.1,43.0,94,71,36,30.05,29.90,1,0,4,0.03
2014-10-21,76.0,57.3,41.5,50.0,44.4,40.0,97,66,37,30.08,29.97,6,0,10,0.00
2014-10-22,77.1,62.4,53.2,62.0,53.3,45.0,97,74,53,30.04,29.90,9,2,16,0.78
2014-10-23,73.3,61.4,54.6,60.0,56.4,50.0,98,85,52,30.01,29.93,4,0,6,0.00
2014-10-24,76.4,62.3,54.4,63.0,57.1,50.0,98,84,58,29.94,29.83,3,0,8,0.01
2014-10-25,75.7,59.8,46.1,52.0,47.6,44.0,94,67,38,30.06,29.94,1,0,5,0.00
2014-10-26,81.6,64.2,54.4,63.0,51.1,41.0,85,63,52,29.94,29.45,8,1,17,0.00
2014-10-27,70.3,57.9,52.0,55.0,50.0,41.0,96,76,48,29.91,29.44,14,1,20,0.00
2014-10-28,58.0,49.5,39.2,41.0,33.9,31.0,78,56,40,30.14,29.91,11,2,20,0.00
2014-10-29,58.9,44.2,32.7,38.0,33.7,30.0,92,69,42,30.23,30.03,4,0,6,0.00
2014-10-30,61.6,49.5,39.2,46.0,38.8,33.0,84,68,53,30.34,29.95,13,2,19,0.00
2014-10-31,45.0,36.6,29.0,32.0,23.7,21.0,75,61,39,30.56,30.35,6,1,14,0.00
2014-11-1,51.9,38.6,28.0,26.0,23.0,20.0,74,56,33,30.46,30.11,9,3,18,0.00
2014-11-2,64.5,52.0,40.8,45.0,35.8,26.0,75,55,45,30.11,29.81,12,3,19,0.00
2014-11-3,65.8,54.7,45.0,55.0,47.8,39.0,88,78,65,30.00,29.72,8,2,16,0.08
2014-11-4,64.6,48.5,37.7,43.0,36.8,33.0,90,67,35,30.14,30.00,6,0,11,0.00
2014-11-5,67.6,51.7,42.3,49.0,38.5,33.0,80,62,43,30.12,29.92,9,1,16,0.03
2014-11-6,52.1,41.9,36.2,37.0,31.9,30.0,81,69,46,30.38,30.11,10,2,17,0.00
2014-11-7,60.8,49.2,36.5,43.0,35.4,29.0,75,61,42,30.20,29.72,14,2,20,0.00
2014-11-8,49.0,42.5,36.8,38.0,30.4,28.0,73,63,47,30.20,29.90,10,2,19,0.00
2014-11-9,59.8,48.1,39.7,43.0,37.1,30.0,80,66,51,29.89,29.52,3,0,8,0.00
2014-11-10,56.8,40.1,22.8,47.0,34.5,19.0,89,81,69,30.00,29.31,8,3,18,0.00
2014-11-11,25.4,20.9,16.7,20.0,13.8,9.0,91,74,65,30.49,30.01,12,4,18,0.00
2014-11-12,24.3,17.4,11.6,13.0,9.6,5.0,81,71,60,30.59,30.49,12,3,17,0.00
2014-11-13,27.5,19.7,13.4,15.0,12.1,7.0,83,73,55,30.62,30.52,10,2,16,0.00
2014-11-14,25.8,18.4,6.2,12.0,7.5,3.0,89,65,46,30.52,30.32,6,0,7,0.00
2014-11-15,27.6,25.0,17.8,25.0,18.3,8.0,93,77,49,30.31,30.14,6,1,13,0.00
2014-11-16,23.2,15.3,4.2,17.0,8.1,0.0,85,73,57,30.25,30.08,15,2,17,0.06
2014-11-17,18.8,13.8,8.0,11.0,5.2,1.0,80,69,56,30.31,30.17,12,3,22,0.00
2014-11-18,31.5,19.4,6.3,23.0,11.1,1.0,82,71,55,30.30,29.87,6,0,9,0.01
2014-11-19,33.9,26.7,18.8,26.0,19.1,13.0,79,73,67,30.19,29.88,12,3,17,0.00
2014-11-20,31.4,20.4,11.1,21.0,15.1,9.0,91,80,64,30.29,30.19,2,0,5,0.00
2014-11-21,38.4,29.0,18.3,34.0,23.5,15.0,95,80,67,30.30,29.98,7,2,15,0.00
2014-11-22,57.8,45.7,35.4,54.0,42.9,34.0,96,90,70,29.99,29.52,8,2,15,0.00
2014-11-23,54.7,46.4,31.6,53.0,41.6,24.0,96,83,65,29.51,29.41,11,3,22,0.03
2014-11-24,36.7,29.6,24.5,23.0,18.1,9.0,76,63,47,30.12,29.50,13,5,23,0.00
2014-11-25,43.4,31.2,15.5,33.0,20.2,8.0,82,65,52,30.16,29.85,7,1,12,0.00
2014-11-26,38.4,30.4,19.1,35.0,26.4,15.0,92,85,77,30.48,29.82,14,4,25,0.05
2014-11-27,25.1,19.4,13.5,20.0,13.0,8.0,88,76,57,30.58,30.15,7,1,12,0.00
2014-11-28,55.0,38.2,24.5,36.0,29.1,20.0,87,71,48,30.13,29.59,8,1,14,0.00
2014-11-29,73.1,50.2,27.9,44.0,37.2,23.0,81,63,34,29.65,29.43,11,1,16,0.00
2014-11-30,27.5,18.2,11.8,23.0,7.0,2.0,83,63,49,30.62,29.66,11,3,23,0.00
2014-12-1,24.5,16.7,12.4,5.0,2.6,0.0,66,54,38,30.78,30.45,5,1,11,0.00
2014-12-2,43.5,26.6,15.0,15.0,10.1,4.0,65,52,30,30.45,30.00,9,2,14,0.00
2014-12-3,38.7,29.4,21.5,19.0,15.9,14.0,75,58,39,30.41,30.16,2,0,9,0.00
2014-12-4,42.2,31.4,24.4,29.0,22.0,15.0,90,69,55,30.29,30.06,7,1,11,0.00
2014-12-5,47.8,36.6,31.4,42.0,34.9,29.0,98,94,79,30.36,30.05,4,0,7,0.00
2014-12-6,38.4,32.3,29.3,33.0,28.9,27.0,95,87,73,30.59,30.36,5,1,7,0.00
2014-12-7,38.6,34.3,31.4,38.0,33.6,30.0,98,97,92,30.49,30.15,10,2,15,0.03
2014-12-8,52.6,39.2,29.2,38.0,32.6,23.0,98,79,51,30.36,30.14,7,1,13,0.00
2014-12-9,33.4,26.5,19.7,27.0,22.5,17.0,90,85,75,30.48,30.35,4,0,9,0.00
2014-12-10,36.8,29.5,25.9,30.0,26.5,23.0,94,89,76,30.35,30.23,8,1,10,0.00
2014-12-11,37.6,32.4,31.2,34.0,29.7,29.0,91,87,84,30.26,30.21,4,1,10,0.00
2014-12-12,57.9,44.6,36.7,47.0,40.6,34.0,96,86,66,30.24,30.12,7,1,11,0.00
2014-12-13,54.2,50.2,47.2,51.0,48.8,46.0,98,95,89,30.12,29.87,8,2,13,0.03
2014-12-14,56.5,53.9,51.5,55.0,53.3,51.0,99,98,94,29.87,29.65,8,1,11,0.23
2014-12-15,53.0,38.2,25.7,53.0,36.9,22.0,98,95,86,30.00,29.56,11,3,22,0.25
2014-12-16,26.3,22.8,17.5,22.0,18.7,15.0,89,84,78,30.39,30.02,14,4,25,0.25
2014-12-17,27.0,22.4,17.1,21.0,16.8,13.0,89,79,69,30.40,30.29,0,0,5,0.00
2014-12-18,30.5,28.3,25.8,28.0,24.9,21.0,92,87,78,30.28,30.21,5,0,6,0.00
2014-12-19,32.7,30.9,29.4,30.0,29.0,27.0,95,93,87,30.26,30.13,7,1,11,0.00
2014-12-20,33.8,31.8,30.0,33.0,31.2,29.0,98,97,95,30.14,30.02,5,1,6,0.02
2014-12-21,41.9,38.8,33.9,41.0,38.0,33.0,98,97,94,30.02,29.61,10,3,16,0.01
2014-12-22,42.4,40.5,36.1,42.0,40.1,35.0,99,98,96,29.61,29.38,7,2,12,0.43
2014-12-23,36.0,34.0,32.6,35.0,33.4,32.0,98,97,96,29.92,29.46,7,2,13,0.21
2014-12-24,33.2,30.1,27.4,33.0,28.7,26.0,97,94,91,29.91,29.67,11,2,17,0.22
2014-12-25,49.3,36.6,27.7,38.0,31.0,27.0,95,81,59,29.73,29.58,9,1,14,0.00
2014-12-26,32.9,31.5,29.0,31.0,30.0,28.0,96,94,91,30.05,29.74,8,1,12,0.00
2014-12-27,28.9,22.4,15.8,28.0,18.7,14.0,95,86,70,30.29,30.05,7,2,12,0.00
2014-12-28,36.0,23.5,14.2,24.0,18.4,12.0,92,81,58,30.25,30.14,1,0,5,0.02
2014-12-29,23.4,17.0,2.8,21.0,13.7,-2.0,91,87,77,30.77,30.25,5,1,12,0.02
2014-12-30,6.3,1.0,-2.7,-2.0,-5.3,-8.0,82,75,64,30.98,30.77,8,2,14,0.00
2014-12-31,21.5,7.9,-3.0,10.0,1.1,-7.0,85,74,59,30.86,30.31,9,2,13,0.00
2015-1-1,37.1,21.7,9.2,24.0,14.6,4.0,88,75,57,30.30,30.09,5,0,8,0.01
2015-1-2,34.3,24.9,16.3,26.0,20.1,14.0,93,83,60,30.25,30.00,6,0,10,0.01